메인 페이지
METAR-TAF:

METAR-TAF

공항 :

아마다바드, 인도

위도: 23-04N, 경도: 072-38E, 고도: 55m

현재 날씨관측

예보는 1 시간 37분 전, 09:00시(UTC)에 발표되었습니다.
북동10kt
온도 25°C
습도 32%
기압 1017 hPa
시정: 6000m

METAR: VAAH 150900Z 05010KT 6000 NSC 25/07 Q1017 NOSIG

시각: 16:07 (10:37 UTC)

예보

예보는 2 시간 37분 전, 08:00시(UTC)에 발표되었습니다.
예보 대상 시간: 15일 09시부터 15일 18시까지 (UTC)
동북동11kt
시정: 5000m
연기
전환 중
15일 12시부터 15일 14시까지 (UTC)
북동6kt
시정: 4000m
연기

TAF: VAAH 150800Z 1509/1518 06011KT 5000 FU NSC BECMG 1512/1514 05006KT 4000 FU

4,000개 이상의 공항 관측 자료 및 예보 (METAR 및 TAF 보고).

지도상에서 검색 가능한 기상관측소가 노란 점과 빨간 점으로 표시되어 있습니다.

기상관측소 명을 보려면 표시 위로 마우스를 이동하세요.

날씨 관측과 예보를 보려면 클릭하세요.

지도 변경 : 확대하려면 엑스 표시가 있는 녹색 버튼, 축소하려면 빼기 표시가 있는 녹색 버튼, 다음 페이지의 지도를 보려면 녹색 화살표를 클릭하세요.


METAR-TAF: